Time;durP1;ratioP1;P1;durP2;ratioP2;P2;SDS_P1;SDS_P2;PMS_P1;PMS_P2;Temp;Humidity;BMP_temperature;BMP_pressure;BME280_temperature;BME280_humidity;BME280_pressure;Samples;Min_cycle;Max_cycle;Signal;HPM_P1;HPM_P2
2023/10/17 00:02:07;;;;;;;6.35;4.32;;;3.20;99.90;;;;;;4984477;28;20049;-39
2023/10/17 00:04:33;;;;;;;5.10;3.95;;;3.20;99.90;;;;;;4980033;28;20034;-41
2023/10/17 00:07:00;;;;;;;6.82;5.05;;;3.10;99.90;;;;;;4985144;28;20057;-38
2023/10/17 00:09:26;;;;;;;5.30;4.18;;;3.10;99.90;;;;;;4985025;28;20058;-39
2023/10/17 00:14:19;;;;;;;6.25;3.97;;;3.10;99.90;;;;;;4981941;28;20046;-40
2023/10/17 00:16:45;;;;;;;7.38;4.47;;;3.10;99.90;;;;;;4982876;28;20039;-40
2023/10/17 00:19:11;;;;;;;4.93;4.43;;;3.00;99.90;;;;;;4979588;28;20038;-40
2023/10/17 00:21:39;;;;;;;6.18;4.15;;;3.00;99.90;;;;;;4985073;28;20041;-41
2023/10/17 00:24:09;;;;;;;6.78;4.60;;;3.10;99.90;;;;;;4990928;28;20121;-38
2023/10/17 00:26:40;;;;;;;9.43;6.80;;;3.20;99.90;;;;;;4992892;28;20034;-40
2023/10/17 00:29:10;;;;;;;9.88;5.70;;;3.20;99.90;;;;;;4982374;28;20512;-37
2023/10/17 00:31:36;;;;;;;7.38;5.03;;;3.20;99.90;;;;;;4984716;28;20092;-39
2023/10/17 00:34:16;;;;;;;7.65;4.47;;;3.10;99.90;;;;;;4988884;28;20048;-38
2023/10/17 00:36:48;;;;;;;4.38;3.78;;;3.10;99.90;;;;;;4984339;28;20023;-41
2023/10/17 00:39:30;;;;;;;8.07;5.18;;;3.00;99.90;;;;;;4988672;28;20062;-40
2023/10/17 00:44:36;;;;;;;7.15;5.22;;;2.80;99.90;;;;;;4988713;28;20022;-40
2023/10/17 00:47:03;;;;;;;8.15;5.25;;;2.70;99.90;;;;;;4981703;28;20026;-40
2023/10/17 00:49:33;;;;;;;7.97;5.25;;;2.70;99.90;;;;;;4983821;28;20104;-40
2023/10/17 00:52:03;;;;;;;7.50;5.38;;;2.80;99.90;;;;;;4987749;28;20053;-35
2023/10/17 00:54:35;;;;;;;6.20;5.00;;;2.80;99.90;;;;;;4986223;28;20525;-39
2023/10/17 00:57:02;;;;;;;9.15;4.22;;;2.90;99.90;;;;;;4981984;28;20038;-38
2023/10/17 00:59:29;;;;;;;8.63;4.57;;;2.90;99.90;;;;;;4981781;28;20109;-38
2023/10/17 01:02:08;;;;;;;5.32;3.80;;;2.90;99.90;;;;;;4986542;28;20042;-41
2023/10/17 01:04:34;;;;;;;;;;;2.90;99.90;;;;;;4992374;28;20025;-39
2023/10/17 01:07:06;;;;;;;7.22;4.00;;;2.90;99.90;;;;;;4987950;28;19917;-40
2023/10/17 01:09:34;;;;;;;5.38;3.90;;;2.90;99.90;;;;;;4985481;28;20451;-40
2023/10/17 01:12:10;;;;;;;4.55;3.63;;;3.00;99.90;;;;;;4986193;28;20092;-40
2023/10/17 01:14:40;;;;;;;6.38;3.88;;;3.00;99.90;;;;;;4985898;28;20116;-38
2023/10/17 01:17:07;;;;;;;5.22;3.80;;;3.00;99.90;;;;;;4981942;28;20153;-38
2023/10/17 01:19:33;;;;;;;4.53;3.42;;;2.90;99.90;;;;;;4989047;28;20038;-40
2023/10/17 01:22:00;;;;;;;4.55;3.58;;;2.70;99.90;;;;;;4979184;28;20037;-40
2023/10/17 01:24:26;;;;;;;4.65;3.80;;;2.60;99.90;;;;;;4983938;28;20030;-40
2023/10/17 01:26:52;;;;;;;4.68;3.67;;;2.60;99.90;;;;;;4986509;28;20034;-39
2023/10/17 01:29:18;;;;;;;6.47;4.50;;;2.60;99.90;;;;;;4986158;28;20088;-38
2023/10/17 01:31:44;;;;;;;7.75;3.60;;;2.60;99.90;;;;;;4985514;28;20038;-39
2023/10/17 01:34:11;;;;;;;3.67;3.22;;;2.60;99.90;;;;;;4986069;28;20031;-40
2023/10/17 01:36:42;;;;;;;5.60;3.65;;;2.60;99.90;;;;;;4982552;28;20042;-39
2023/10/17 01:39:10;;;;;;;7.25;3.67;;;2.60;99.90;;;;;;4988312;28;20496;-39
2023/10/17 01:41:38;;;;;;;3.88;3.47;;;2.50;99.90;;;;;;4989833;28;20038;-40
2023/10/17 01:44:04;;;;;;;6.15;4.03;;;2.50;99.90;;;;;;4985015;28;20042;-38
2023/10/17 01:46:30;;;;;;;4.25;3.58;;;2.50;99.90;;;;;;4979216;28;20114;-40
2023/10/17 01:48:59;;;;;;;4.63;3.80;;;2.40;99.90;;;;;;4985145;28;20551;-40
2023/10/17 01:51:27;;;;;;;4.32;3.28;;;2.30;99.90;;;;;;4987165;28;20034;-40
2023/10/17 01:53:53;;;;;;;4.63;3.53;;;2.20;99.90;;;;;;4983742;28;20030;-37
2023/10/17 01:56:26;;;;;;;5.13;3.85;;;2.20;99.90;;;;;;4985012;28;20750;-40
2023/10/17 01:58:55;;;;;;;4.78;3.85;;;2.20;99.90;;;;;;4983642;28;20026;-39
2023/10/17 02:01:25;;;;;;;4.38;3.75;;;2.20;99.90;;;;;;4982788;28;20041;-40
2023/10/17 02:04:03;;;;;;;3.53;3.20;;;2.10;99.90;;;;;;4988745;28;20019;-40
2023/10/17 02:06:33;;;;;;;4.50;2.95;;;2.10;99.90;;;;;;4983808;28;20031;-40
2023/10/17 02:09:00;;;;;;;6.45;4.05;;;2.00;99.90;;;;;;4979406;28;20039;-37
2023/10/17 02:11:26;;;;;;;2.85;2.60;;;2.00;99.90;;;;;;4982097;28;20481;-39
2023/10/17 02:13:59;;;;;;;3.40;2.72;;;1.90;99.90;;;;;;4985219;28;20050;-40
2023/10/17 02:16:29;;;;;;;2.83;2.63;;;1.80;99.90;;;;;;4985365;28;20042;-40
2023/10/17 02:18:56;;;;;;;2.60;2.10;;;1.70;99.90;;;;;;4980142;28;20141;-39
2023/10/17 02:21:21;;;;;;;3.53;2.88;;;1.60;99.90;;;;;;4984987;28;20105;-39
2023/10/17 02:23:50;;;;;;;3.55;3.20;;;1.70;99.90;;;;;;4985566;28;20798;-38
2023/10/17 02:26:21;;;;;;;3.08;2.75;;;1.70;99.90;;;;;;4990409;28;20634;-40
2023/10/17 02:29:10;;;;;;;3.15;2.50;;;1.60;99.90;;;;;;4988361;28;20025;-40
2023/10/17 02:31:36;;;;;;;3.05;2.80;;;1.50;99.90;;;;;;4987643;28;20166;-38
2023/10/17 02:34:01;;;;;;;3.55;3.25;;;1.40;99.90;;;;;;4988178;28;20116;-40
2023/10/17 02:36:27;;;;;;;4.38;3.63;;;1.40;99.90;;;;;;4981955;28;20046;-40
2023/10/17 02:38:52;;;;;;;3.60;3.30;;;1.40;99.90;;;;;;4985229;28;20026;-37
2023/10/17 02:41:19;;;;;;;4.05;3.53;;;1.50;99.90;;;;;;4986041;28;20639;-39
2023/10/17 02:43:52;;;;;;;4.95;4.03;;;1.50;99.90;;;;;;4985053;28;20030;-37
2023/10/17 02:46:18;;;;;;;4.38;3.50;;;1.60;99.90;;;;;;4987698;28;20030;-38
2023/10/17 02:48:45;;;;;;;5.88;3.90;;;1.50;99.90;;;;;;4983413;28;20026;-40
2023/10/17 02:53:56;;;;;;;5.75;3.85;;;1.50;99.90;;;;;;4990876;28;20042;-38
2023/10/17 02:56:23;;;;;;;4.07;3.13;;;1.60;99.90;;;;;;4987658;28;20050;-39
2023/10/17 02:59:06;;;;;;;10.13;3.67;;;1.50;99.90;;;;;;4986036;28;20129;-40
2023/10/17 03:01:34;;;;;;;11.10;3.53;;;1.50;99.90;;;;;;4988052;28;20030;-40
2023/10/17 03:04:09;;;;;;;8.15;4.00;;;1.50;99.90;;;;;;4980156;28;20093;-37
2023/10/17 03:06:40;;;;;;;5.90;3.75;;;1.50;99.90;;;;;;4985790;28;20362;-40
2023/10/17 03:09:32;;;;;;;8.77;3.58;;;1.60;99.90;;;;;;4983822;28;20762;-39
2023/10/17 03:17:04;;;;;;;3.63;3.08;;;1.30;99.90;;;;;;4981853;28;20027;-36
2023/10/17 03:19:30;;;;;;;3.25;2.95;;;1.30;99.90;;;;;;4985031;28;20076;-33
2023/10/17 03:22:16;;;;;;;4.13;3.35;;;1.20;99.90;;;;;;4987607;28;20039;-33
2023/10/17 03:24:46;;;;;;;4.75;3.08;;;1.20;99.90;;;;;;4984457;28;20439;-34
2023/10/17 03:27:25;;;;;;;4.20;3.10;;;1.20;99.90;;;;;;4985461;28;20022;-34
2023/10/17 03:29:51;;;;;;;3.50;3.20;;;1.00;99.90;;;;;;4987927;28;20026;-32
2023/10/17 03:32:17;;;;;;;4.93;3.10;;;1.00;99.90;;;;;;4982721;28;20611;-33
2023/10/17 03:34:52;;;;;;;3.13;2.85;;;1.00;99.90;;;;;;4984289;28;20033;-36
2023/10/17 03:39:54;;;;;;;3.75;3.45;;;0.90;99.90;;;;;;4977133;28;20047;-37
2023/10/17 03:43:21;;;;;;;3.95;3.28;;;0.90;99.90;;;;;;4984289;28;20046;-34
2023/10/17 03:45:26;;;;;;;3.70;3.40;;;0.90;99.90;;;;;;4973126;28;20046;-33
2023/10/17 03:47:53;;;;;;;2.50;2.30;;;0.80;99.90;;;;;;4984815;28;20075;-35
2023/10/17 03:50:48;;;;;;;3.05;2.75;;;0.80;99.90;;;;;;4976722;28;20384;-35
2023/10/17 03:55:42;;;;;;;3.17;2.88;;;0.70;99.90;;;;;;4983138;28;20504;-35
2023/10/17 04:00:54;;;;;;;2.88;2.42;;;0.70;99.90;;;;;;4982814;28;20049;-35
2023/10/17 04:03:21;;;;;;;3.60;2.63;;;0.80;99.90;;;;;;4991236;28;20038;-34
2023/10/17 04:06:18;;;;;;;3.22;2.92;;;0.80;99.90;;;;;;4986517;28;20027;-35
2023/10/17 04:08:49;;;;;;;2.67;2.47;;;0.90;99.90;;;;;;4986523;28;20116;-33
2023/10/17 04:14:01;;;;;;;4.00;3.10;;;0.90;99.90;;;;;;4983790;28;20570;-34
2023/10/17 04:16:33;;;;;;;2.83;2.63;;;0.90;99.90;;;;;;4986673;28;20145;-33
2023/10/17 04:19:07;;;;;;;2.95;2.70;;;1.00;99.90;;;;;;4981734;28;20687;-35
2023/10/17 04:21:38;;;;;;;3.63;3.20;;;0.90;99.90;;;;;;4980012;28;20041;-34
2023/10/17 04:24:07;;;;;;;3.22;2.97;;;0.90;99.90;;;;;;4981296;28;20491;-36
2023/10/17 04:26:36;;;;;;;3.58;2.92;;;0.90;99.90;;;;;;4990713;28;20452;-36
2023/10/17 04:29:21;;;;;;;3.53;3.22;;;0.90;99.90;;;;;;4979327;28;20035;-33
2023/10/17 04:31:47;;;;;;;5.18;3.60;;;0.90;99.90;;;;;;4984705;28;20444;-37
2023/10/17 04:34:21;;;;;;;3.58;2.97;;;0.90;99.90;;;;;;4986196;28;20092;-32
2023/10/17 04:36:56;;;;;;;4.78;3.92;;;1.00;99.90;;;;;;4985035;28;20034;-38
2023/10/17 04:39:35;;;;;;;5.03;3.42;;;1.00;99.90;;;;;;4983897;28;20060;-35
2023/10/17 04:44:39;;;;;;;4.30;3.53;;;1.00;99.90;;;;;;4983399;28;20026;-34
2023/10/17 04:47:25;;;;;;;;;;;1.00;99.90;;;;;;4989510;28;20121;-34
2023/10/17 04:49:54;;;;;;;2.95;2.75;;;0.90;99.90;;;;;;4982880;28;20362;-33
2023/10/17 04:52:23;;;;;;;9.38;3.17;;;0.80;99.90;;;;;;4980495;28;20675;-33
2023/10/17 04:54:52;;;;;;;3.20;2.92;;;0.60;99.90;;;;;;4986497;28;20046;-33
2023/10/17 04:57:19;;;;;;;3.90;2.67;;;0.50;99.90;;;;;;4986252;28;20050;-34
2023/10/17 06:18:33;;;;;;;4.03;3.47;;;1.20;99.90;;;;;;4989281;28;20041;-39
2023/10/17 06:32:06;;;;;;;3.92;3.63;;;1.50;99.90;;;;;;4983235;28;20030;-40
2023/10/17 06:34:33;;;;;;;4.35;3.72;;;1.50;99.90;;;;;;4987552;28;20407;-41
2023/10/17 06:36:59;;;;;;;4.82;4.03;;;1.50;99.90;;;;;;4979137;28;20531;-40
2023/10/17 06:39:36;;;;;;;6.95;4.72;;;1.50;99.90;;;;;;4985988;28;20109;-40
2023/10/17 06:42:15;;;;;;;8.32;5.28;;;1.50;99.90;;;;;;4985641;28;20038;-32
2023/10/17 06:44:52;;;;;;;4.80;3.97;;;1.50;99.90;;;;;;4984448;28;20137;-33
2023/10/17 06:47:21;;;;;;;4.57;3.50;;;1.60;99.90;;;;;;4980414;28;20510;-33
2023/10/17 06:50:16;;;;;;;5.05;3.60;;;1.70;99.90;;;;;;4984989;28;20045;-32
2023/10/17 06:55:21;;;;;;;6.10;4.20;;;1.70;99.90;;;;;;4987051;28;20042;-40
2023/10/17 06:57:51;;;;;;;5.78;4.40;;;1.80;99.90;;;;;;4983996;28;20034;-39
2023/10/17 07:03:02;;;;;;;7.38;4.32;;;1.90;99.90;;;;;;4985441;28;20411;-40
2023/10/17 07:05:27;;;;;;;4.32;3.92;;;2.00;99.90;;;;;;4984304;28;20022;-39
2023/10/17 07:07:53;;;;;;;5.50;4.35;;;2.00;99.90;;;;;;4981383;28;20097;-38
2023/10/17 07:13:32;;;;;;;6.07;4.50;;;2.20;99.90;;;;;;4985222;28;20022;-40
2023/10/17 07:16:16;;;;;;;6.95;5.18;;;2.20;99.90;;;;;;4988758;28;20140;-37
2023/10/17 07:18:51;;;;;;;9.20;4.47;;;2.30;99.90;;;;;;4985325;28;20546;-39
2023/10/17 07:21:23;;;;;;;6.70;5.07;;;2.40;99.90;;;;;;4982133;28;20052;-38
2023/10/17 07:23:48;;;;;;;9.00;6.13;;;2.50;99.90;;;;;;4981521;28;20146;-40
2023/10/17 07:26:18;;;;;;;12.65;6.93;;;2.60;99.90;;;;;;4984008;28;20058;-40
2023/10/17 07:28:44;;;;;;;11.27;6.63;;;2.60;99.90;;;;;;4985177;28;20026;-40
2023/10/17 07:31:13;;;;;;;14.10;8.05;;;2.70;99.90;;;;;;4982538;28;20046;-39
2023/10/17 07:33:43;;;;;;;16.92;7.97;;;2.70;99.90;;;;;;4983758;28;20519;-40
2023/10/17 07:36:27;;;;;;;13.35;7.03;;;2.70;99.90;;;;;;4984519;28;20090;-40
2023/10/17 07:38:53;;;;;;;18.08;9.13;;;2.80;99.90;;;;;;4982856;28;20027;-38
2023/10/17 07:41:36;;;;;;;17.27;11.02;;;2.80;99.90;;;;;;4985277;28;20548;-40
2023/10/17 07:44:19;;;;;;;17.63;9.90;;;2.80;99.90;;;;;;4986620;28;20038;-39
2023/10/17 07:46:48;;;;;;;14.45;8.93;;;2.90;99.90;;;;;;4983885;28;20031;-37
2023/10/17 07:49:16;;;;;;;18.52;10.15;;;3.00;99.90;;;;;;4987436;28;20059;-40
2023/10/17 07:51:42;;;;;;;14.88;10.65;;;3.00;99.90;;;;;;4985184;28;20499;-37
2023/10/17 07:54:08;;;;;;;15.55;9.38;;;3.00;99.90;;;;;;4832384;28;20022;-39
2023/10/17 07:56:34;;;;;;;21.38;11.05;;;3.00;99.90;;;;;;4977227;28;20061;-40
2023/10/17 07:59:04;;;;;;;20.88;9.70;;;3.00;99.90;;;;;;4982678;28;20096;-37
2023/10/17 08:01:43;;;;;;;18.08;10.38;;;3.10;99.90;;;;;;4986730;28;20038;-36
2023/10/17 08:04:53;;;;;;;22.25;10.55;;;3.10;99.90;;;;;;4987464;28;20035;-33
2023/10/17 08:06:58;;;;;;;16.88;10.07;;;3.10;99.90;;;;;;4980251;28;20042;-34
2023/10/17 08:09:24;;;;;;;21.02;10.40;;;3.10;99.90;;;;;;4983189;28;20687;-32
2023/10/17 08:11:51;;;;;;;21.98;11.30;;;3.20;99.90;;;;;;4985815;28;20068;-33
2023/10/17 08:14:19;;;;;;;25.65;12.80;;;3.30;99.90;;;;;;4978913;28;20297;-34
2023/10/17 08:16:49;;;;;;;15.88;9.88;;;3.30;99.90;;;;;;4980768;28;20476;-33
2023/10/17 08:19:15;;;;;;;21.40;11.77;;;3.30;99.90;;;;;;4983976;28;20026;-33
2023/10/17 08:24:33;;;;;;;21.60;11.80;;;3.40;99.90;;;;;;4981828;28;20045;-34
2023/10/17 08:29:45;;;;;;;26.08;13.18;;;3.60;99.90;;;;;;4983330;28;20468;-34
2023/10/17 08:34:48;;;;;;;17.33;10.85;;;3.70;99.90;;;;;;4988455;28;20026;-35
2023/10/17 08:37:26;;;;;;;20.80;12.13;;;3.80;99.90;;;;;;4991993;28;20116;-35
2023/10/17 08:39:51;;;;;;;18.15;11.43;;;3.90;99.90;;;;;;4981410;28;20034;-34
2023/10/17 08:44:55;;;;;;;17.60;10.43;;;3.90;99.90;;;;;;4984832;28;20117;-35
2023/10/17 08:47:25;;;;;;;23.98;12.65;;;3.90;99.90;;;;;;4979380;28;20122;-34
2023/10/17 08:49:51;;;;;;;21.33;11.38;;;3.90;99.90;;;;;;4981917;28;20030;-34
2023/10/17 08:52:28;;;;;;;25.38;14.68;;;4.00;99.90;;;;;;4981964;28;20614;-33
2023/10/17 08:54:57;;;;;;;18.08;11.07;;;4.10;99.90;;;;;;4977444;28;20057;-32
2023/10/17 08:57:25;;;;;;;20.50;12.50;;;4.20;99.90;;;;;;4982988;28;20034;-33
2023/10/17 09:05:00;;;;;;;;;;;4.20;99.90;;;;;;4982791;28;20026;-32
2023/10/17 09:07:41;;;;;;;21.17;11.75;;;4.20;99.90;;;;;;4982152;28;20428;-33
2023/10/17 09:10:18;;;;;;;19.38;10.52;;;4.30;99.90;;;;;;4975125;28;20059;-34
2023/10/17 09:13:15;;;;;;;20.23;11.82;;;4.30;99.90;;;;;;4987332;28;20514;-34
2023/10/17 09:15:39;;;;;;;20.70;11.13;;;4.50;99.90;;;;;;4983950;28;20121;-33
2023/10/17 09:18:08;;;;;;;17.75;10.52;;;4.60;99.90;;;;;;4979374;28;20038;-35
2023/10/17 09:20:35;;;;;;;15.18;10.75;;;4.60;99.90;;;;;;4977937;28;20034;-32
2023/10/17 09:23:00;;;;;;;16.85;10.18;;;4.80;99.90;;;;;;4983386;28;20041;-33
2023/10/17 09:25:26;;;;;;;18.42;9.70;;;4.80;99.90;;;;;;4983531;28;20528;-32
2023/10/17 09:27:53;;;;;;;17.23;10.25;;;4.90;99.90;;;;;;4976599;28;20551;-33
2023/10/17 09:30:19;;;;;;;17.00;10.75;;;5.00;99.90;;;;;;4981161;28;20524;-33
2023/10/17 09:32:46;;;;;;;17.73;10.45;;;5.10;99.90;;;;;;4977054;28;20110;-33
2023/10/17 09:35:14;;;;;;;16.63;10.43;;;5.10;99.90;;;;;;4979496;28;20030;-33
2023/10/17 09:38:02;;;;;;;18.02;10.05;;;5.00;99.90;;;;;;4984274;28;20046;-33
2023/10/17 09:40:31;;;;;;;20.23;10.38;;;4.90;99.90;;;;;;4980667;28;20503;-35
2023/10/17 09:42:59;;;;;;;18.33;10.85;;;4.80;99.90;;;;;;4989236;28;20036;-36
2023/10/17 09:45:35;;;;;;;18.58;10.02;;;4.80;99.90;;;;;;4982015;28;20035;-33
2023/10/17 09:48:04;;;;;;;18.05;9.85;;;4.90;99.90;;;;;;4980084;28;20022;-33
2023/10/17 09:50:33;;;;;;;18.10;11.15;;;5.00;99.90;;;;;;4977343;28;20105;-34
2023/10/17 09:53:01;;;;;;;18.10;10.52;;;5.10;99.90;;;;;;4985801;28;20105;-33
2023/10/17 09:55:27;;;;;;;10.85;6.88;;;5.10;99.90;;;;;;4980951;28;20046;-33
2023/10/17 09:58:08;;;;;;;15.25;8.32;;;5.30;99.90;;;;;;4985399;28;20459;-34
2023/10/17 10:00:51;;;;;;;17.23;10.80;;;5.40;99.90;;;;;;4987218;28;20026;-34
2023/10/17 10:03:20;;;;;;;21.95;11.18;;;5.60;99.90;;;;;;4978564;28;20443;-34
2023/10/17 10:05:45;;;;;;;17.95;10.02;;;5.40;99.90;;;;;;4978885;28;20023;-34
2023/10/17 10:08:28;;;;;;;17.15;10.32;;;5.50;99.90;;;;;;4974143;28;20053;-33
2023/10/17 10:10:55;;;;;;;17.27;10.07;;;5.40;99.90;;;;;;4980024;28;20030;-34
2023/10/17 10:13:21;;;;;;;15.55;10.35;;;5.60;99.90;;;;;;4972258;28;20084;-40
2023/10/17 10:15:59;;;;;;;16.05;10.90;;;5.60;99.90;;;;;;4972633;28;20448;-40
2023/10/17 10:18:43;;;;;;;15.05;9.40;;;5.60;99.90;;;;;;4979400;28;20077;-40
2023/10/17 10:21:18;;;;;;;16.75;9.90;;;5.40;99.90;;;;;;4977726;28;20030;-33
2023/10/17 10:23:45;;;;;;;16.80;10.75;;;5.40;99.90;;;;;;4975524;28;20105;-34
2023/10/17 10:26:11;;;;;;;16.30;10.43;;;5.40;99.90;;;;;;4978475;28;20390;-33
2023/10/17 10:28:43;;;;;;;17.30;10.25;;;5.40;99.90;;;;;;4975081;28;20034;-35
2023/10/17 10:31:27;;;;;;;18.98;10.60;;;5.40;99.90;;;;;;4980749;28;20768;-33
2023/10/17 10:33:54;;;;;;;18.67;10.63;;;5.30;99.90;;;;;;4977314;28;20097;-34
2023/10/17 10:36:24;;;;;;;16.73;10.23;;;5.40;99.90;;;;;;4970632;28;20093;-34
2023/10/17 10:38:50;;;;;;;16.73;10.35;;;5.40;99.90;;;;;;4973764;28;20035;-33
2023/10/17 10:41:18;;;;;;;18.63;11.07;;;5.60;99.90;;;;;;4976382;28;20100;-35
2023/10/17 10:43:44;;;;;;;19.10;10.73;;;5.70;99.90;;;;;;4978311;28;20030;-36
2023/10/17 10:46:17;;;;;;;17.83;9.95;;;5.60;99.90;;;;;;4977929;28;20094;-34
2023/10/17 10:48:51;;;;;;;19.13;10.48;;;5.60;99.90;;;;;;4975971;28;20023;-33
2023/10/17 10:51:21;;;;;;;16.30;10.38;;;5.70;99.90;;;;;;4975802;28;20169;-33
2023/10/17 10:53:54;;;;;;;16.08;10.40;;;5.60;99.90;;;;;;4984504;28;20206;-32
2023/10/17 10:56:22;;;;;;;14.82;9.18;;;5.60;99.90;;;;;;4986846;28;20509;-34
2023/10/17 10:58:53;;;;;;;16.55;10.40;;;5.70;99.90;;;;;;4978541;28;20066;-33
2023/10/17 11:01:20;;;;;;;18.48;9.98;;;5.70;99.90;;;;;;4982475;28;20045;-33
2023/10/17 11:03:46;;;;;;;17.08;10.13;;;5.80;99.90;;;;;;4987795;28;20034;-33
2023/10/17 11:06:13;;;;;;;16.05;9.70;;;6.00;99.90;;;;;;4990281;28;20110;-33
2023/10/17 11:08:45;;;;;;;16.27;10.38;;;6.00;99.90;;;;;;4983818;28;20030;-32
2023/10/17 11:11:12;;;;;;;17.42;10.27;;;6.00;99.90;;;;;;4985336;28;20038;-33
2023/10/17 11:13:40;;;;;;;18.08;10.20;;;5.90;99.90;;;;;;4989342;28;20026;-34
2023/10/17 11:16:06;;;;;;;18.10;10.57;;;5.90;99.90;;;;;;4986311;28;20034;-33
2023/10/17 11:18:38;;;;;;;18.35;10.35;;;6.00;99.90;;;;;;4990214;28;20046;-35
2023/10/17 11:21:05;;;;;;;14.13;9.13;;;6.10;99.90;;;;;;4985767;28;20539;-33
2023/10/17 11:23:32;;;;;;;18.38;10.05;;;6.20;99.90;;;;;;4988908;28;20026;-40
2023/10/17 11:25:59;;;;;;;17.88;10.25;;;6.30;99.90;;;;;;4986648;28;20030;-35
2023/10/17 11:28:27;;;;;;;18.42;10.80;;;6.40;99.90;;;;;;4981393;28;20026;-38
2023/10/17 11:30:53;;;;;;;18.13;10.77;;;6.30;99.90;;;;;;4980297;28;20415;-38
2023/10/17 11:33:29;;;;;;;18.27;11.50;;;6.30;99.90;;;;;;4997656;28;20590;-29
2023/10/17 11:35:54;;;;;;;18.88;10.65;;;6.30;99.90;;;;;;4980423;28;20598;-30
2023/10/17 11:38:38;;;;;;;14.98;10.32;;;6.20;99.90;;;;;;4986861;28;20034;-31
2023/10/17 11:41:07;;;;;;;16.55;9.90;;;6.10;99.90;;;;;;4989750;28;20029;-36
2023/10/17 11:43:53;;;;;;;16.63;10.80;;;6.30;99.90;;;;;;4989498;28;20035;-31
2023/10/17 11:46:29;;;;;;;17.33;10.30;;;6.40;99.90;;;;;;4983989;28;20039;-31
2023/10/17 11:49:29;;;;;;;20.02;10.95;;;6.40;99.90;;;;;;4988238;28;20040;-30
2023/10/17 11:52:15;;;;;;;15.35;10.45;;;6.40;99.90;;;;;;4985520;28;20034;-30
2023/10/17 11:55:00;;;;;;;17.05;10.05;;;6.50;99.90;;;;;;4984933;28;20070;-30
2023/10/17 11:57:28;;;;;;;15.32;9.65;;;6.70;99.90;;;;;;4989639;28;20105;-30
2023/10/17 12:02:59;;;;;;;16.75;10.82;;;6.70;99.90;;;;;;4952700;28;20058;-33
2023/10/17 12:05:27;;;;;;;18.08;10.50;;;6.90;99.90;;;;;;4986019;28;20119;-29
2023/10/17 12:07:54;;;;;;;17.17;10.73;;;7.00;99.90;;;;;;4982201;28;20042;-30
2023/10/17 12:10:20;;;;;;;19.98;11.20;;;7.20;99.90;;;;;;4985974;28;20034;-30
2023/10/17 12:12:47;;;;;;;20.08;10.35;;;7.30;99.90;;;;;;4990359;28;20041;-31
2023/10/17 12:15:20;;;;;;;20.10;11.60;;;7.20;99.90;;;;;;4982418;28;20025;-36
2023/10/17 12:17:48;;;;;;;22.05;10.90;;;7.20;99.90;;;;;;4977456;28;20027;-30
2023/10/17 12:20:13;;;;;;;17.98;11.23;;;7.10;99.90;;;;;;4985380;28;20030;-32
2023/10/17 12:22:40;;;;;;;18.80;10.35;;;7.20;99.90;;;;;;4984131;28;20037;-31
2023/10/17 12:25:10;;;;;;;17.70;11.32;;;7.30;99.90;;;;;;4984315;28;20588;-33
2023/10/17 12:27:39;;;;;;;16.35;10.10;;;7.40;99.90;;;;;;4980465;28;20106;-29
2023/10/17 12:30:08;;;;;;;20.75;11.00;;;7.50;99.90;;;;;;4985773;28;20065;-33
2023/10/17 12:32:34;;;;;;;19.67;11.00;;;7.50;99.90;;;;;;4982160;28;20052;-32
2023/10/17 12:34:59;;;;;;;16.33;10.35;;;7.50;99.90;;;;;;4988428;28;20377;-33
2023/10/17 12:37:25;;;;;;;18.85;11.25;;;7.50;99.90;;;;;;4985568;28;20062;-32
2023/10/17 12:39:52;;;;;;;18.50;10.98;;;7.60;99.90;;;;;;4983757;28;20038;-32
2023/10/17 12:42:18;;;;;;;17.45;10.73;;;7.60;99.90;;;;;;4983163;28;21526;-30
2023/10/17 12:44:44;;;;;;;17.33;11.38;;;7.60;99.90;;;;;;4985358;28;20027;-30
2023/10/17 12:47:10;;;;;;;17.08;10.95;;;7.60;99.90;;;;;;4984284;28;20037;-33
2023/10/17 12:49:37;;;;;;;17.77;11.48;;;7.60;99.90;;;;;;4986314;28;20502;-30
2023/10/17 12:52:03;;;;;;;25.30;12.30;;;7.70;99.90;;;;;;4985104;28;20045;-30
2023/10/17 12:54:28;;;;;;;17.85;11.20;;;7.70;99.90;;;;;;4979878;28;20038;-30
2023/10/17 12:56:54;;;;;;;19.38;11.20;;;7.70;99.90;;;;;;4987815;28;20022;-30
2023/10/17 12:59:20;;;;;;;19.02;11.75;;;7.60;99.90;;;;;;4979252;28;20031;-30
2023/10/17 13:01:46;;;;;;;20.38;11.60;;;7.70;99.90;;;;;;4979021;28;20038;-30
2023/10/17 13:04:11;;;;;;;18.17;10.85;;;7.80;99.90;;;;;;4986602;28;20046;-30
2023/10/17 13:06:38;;;;;;;16.52;10.77;;;7.80;99.90;;;;;;4987105;28;20086;-35
2023/10/17 13:09:04;;;;;;;17.02;11.18;;;7.80;99.90;;;;;;4979491;28;20046;-34
2023/10/17 13:11:30;;;;;;;19.17;12.45;;;7.80;99.90;;;;;;4983927;28;20060;-30
2023/10/17 13:13:57;;;;;;;17.00;10.93;;;7.80;99.90;;;;;;4977617;28;20033;-31
2023/10/17 13:16:26;;;;;;;20.92;12.35;;;7.80;99.90;;;;;;4979349;28;20038;-33
2023/10/17 13:18:54;;;;;;;20.13;10.80;;;7.80;99.90;;;;;;4983748;28;20019;-34
2023/10/17 13:21:20;;;;;;;21.83;12.35;;;7.80;99.90;;;;;;4985303;28;20069;-30
2023/10/17 13:23:46;;;;;;;19.10;10.80;;;7.80;99.90;;;;;;4981541;28;20369;-30
2023/10/17 13:26:13;;;;;;;20.10;12.23;;;7.80;99.90;;;;;;4977704;28;20656;-30
2023/10/17 13:28:42;;;;;;;17.92;11.02;;;7.90;99.90;;;;;;4976961;28;20476;-30
2023/10/17 13:31:12;;;;;;;20.92;11.30;;;8.00;99.90;;;;;;4979315;28;20045;-34
2023/10/17 13:33:38;;;;;;;19.30;11.40;;;8.10;99.90;;;;;;4987015;28;20026;-36
2023/10/17 13:36:07;;;;;;;16.90;9.90;;;8.10;99.90;;;;;;4978653;28;20511;-36
2023/10/17 13:38:32;;;;;;;17.38;10.38;;;8.10;99.90;;;;;;4985977;28;20421;-31
2023/10/17 13:41:14;;;;;;;20.30;13.00;;;8.20;99.90;;;;;;4985408;28;20044;-33
2023/10/17 13:43:41;;;;;;;21.00;11.43;;;8.30;99.90;;;;;;4979729;28;20086;-37
2023/10/17 13:46:08;;;;;;;17.15;10.85;;;8.30;99.90;;;;;;4978598;28;20101;-40
2023/10/17 13:48:34;;;;;;;16.20;10.45;;;8.40;99.90;;;;;;4974593;28;20043;-38
2023/10/17 13:51:06;;;;;;;17.05;11.45;;;8.30;99.90;;;;;;4977065;28;20035;-37
2023/10/17 13:53:33;;;;;;;19.83;11.15;;;8.20;99.90;;;;;;4983410;28;20029;-30
2023/10/17 13:55:58;;;;;;;22.65;13.70;;;8.20;99.90;;;;;;4981248;28;20579;-35
2023/10/17 13:58:24;;;;;;;22.00;11.75;;;8.30;99.90;;;;;;4986510;28;20026;-30
2023/10/17 14:00:51;;;;;;;24.85;11.68;;;8.20;99.90;;;;;;4983841;28;20042;-31
2023/10/17 14:03:17;;;;;;;20.25;11.70;;;8.20;99.90;;;;;;4985493;28;20843;-33
2023/10/17 14:05:49;;;;;;;20.27;12.15;;;8.20;99.90;;;;;;4985010;28;20031;-37
2023/10/17 14:08:16;;;;;;;19.08;11.93;;;8.20;99.90;;;;;;4984182;28;20030;-30
2023/10/17 14:10:43;;;;;;;16.08;10.88;;;8.20;99.90;;;;;;4989230;28;20073;-30
2023/10/17 14:13:11;;;;;;;18.33;10.57;;;8.30;99.90;;;;;;4978579;28;20045;-31
2023/10/17 14:15:37;;;;;;;17.35;11.48;;;8.30;99.90;;;;;;4982901;28;20042;-31
2023/10/17 14:18:16;;;;;;;18.15;11.05;;;8.40;99.90;;;;;;4982454;28;20038;-33
2023/10/17 14:21:06;;;;;;;17.75;10.90;;;8.30;99.90;;;;;;4977643;28;20369;-35
2023/10/17 14:24:07;;;;;;;17.40;10.50;;;8.40;99.90;;;;;;4984068;28;20074;-30
2023/10/17 14:26:20;;;;;;;20.90;13.65;;;8.40;99.90;;;;;;4980378;28;20051;-31
2023/10/17 14:28:46;;;;;;;15.90;10.18;;;8.50;99.90;;;;;;4986621;28;20034;-31
2023/10/17 14:31:12;;;;;;;18.42;12.00;;;8.50;99.90;;;;;;4989496;28;20027;-33
2023/10/17 14:33:37;;;;;;;16.75;9.93;;;8.50;99.90;;;;;;4985435;28;20068;-33
2023/10/17 14:36:04;;;;;;;16.17;10.52;;;8.50;99.90;;;;;;4987362;28;20026;-34
2023/10/17 14:38:31;;;;;;;17.85;12.48;;;8.40;99.90;;;;;;4989176;28;20041;-32
2023/10/17 14:40:58;;;;;;;19.93;12.50;;;8.50;99.90;;;;;;4983520;28;20473;-33
2023/10/17 14:43:25;;;;;;;16.88;10.32;;;8.50;99.90;;;;;;4991499;28;20606;-32
2023/10/17 14:45:53;;;;;;;17.38;11.27;;;8.50;99.90;;;;;;4987560;28;20097;-30
2023/10/17 14:48:20;;;;;;;13.88;9.98;;;8.50;99.90;;;;;;4988170;28;20053;-33
2023/10/17 14:50:45;;;;;;;15.48;10.40;;;8.40;99.90;;;;;;4984343;28;20467;-30
2023/10/17 14:53:11;;;;;;;16.67;11.27;;;8.50;99.90;;;;;;4984536;28;20061;-40
2023/10/17 14:55:38;;;;;;;15.88;10.48;;;8.40;99.90;;;;;;4982680;28;20039;-38
2023/10/17 14:58:04;;;;;;;15.93;9.57;;;8.40;99.90;;;;;;4982989;28;20034;-35
2023/10/17 15:00:30;;;;;;;16.80;10.32;;;8.40;99.90;;;;;;4984810;28;20117;-38
2023/10/17 15:02:59;;;;;;;16.45;9.55;;;8.50;99.90;;;;;;4985361;28;20045;-31
2023/10/17 15:05:24;;;;;;;14.52;10.05;;;8.50;99.90;;;;;;4977296;28;20043;-33
2023/10/17 15:07:50;;;;;;;14.57;9.45;;;8.50;99.90;;;;;;4984269;28;20065;-30
2023/10/17 15:10:16;;;;;;;16.45;10.07;;;8.60;99.90;;;;;;4986770;28;20026;-33
2023/10/17 15:12:43;;;;;;;13.80;9.07;;;8.60;99.90;;;;;;4989070;28;20483;-30
2023/10/17 15:15:16;;;;;;;15.13;9.75;;;8.60;99.90;;;;;;4982146;28;20034;-31
2023/10/17 15:17:42;;;;;;;14.13;9.40;;;8.60;99.90;;;;;;4980873;28;20034;-30
2023/10/17 15:20:13;;;;;;;15.13;9.10;;;8.60;99.90;;;;;;4980908;28;20066;-30
2023/10/17 15:22:39;;;;;;;12.02;8.65;;;8.50;99.90;;;;;;4981870;28;20076;-31
2023/10/17 15:25:06;;;;;;;14.60;7.35;;;8.40;99.90;;;;;;4988944;28;20035;-32
2023/10/17 15:27:31;;;;;;;12.55;7.80;;;8.40;99.90;;;;;;4985826;28;20537;-30